createdAt,value
2018-09-01T00:00:35.936Z,0.00
2018-09-01T00:01:35.870Z,0.00
2018-09-01T00:02:35.853Z,0.00
2018-09-01T00:03:35.870Z,0.00
2018-09-01T00:04:35.800Z,0.00
2018-09-01T00:05:35.780Z,0.00
2018-09-01T00:06:35.780Z,0.00
2018-09-01T00:07:35.777Z,0.00
2018-09-01T00:08:35.717Z,0.00
2018-09-01T00:09:35.778Z,0.00
2018-09-01T00:10:35.681Z,0.00
2018-09-01T00:11:35.699Z,0.00
2018-09-01T00:12:35.664Z,0.00
2018-09-01T00:13:35.629Z,0.00
2018-09-01T00:14:35.590Z,0.00
2018-09-01T00:15:35.593Z,0.00
2018-09-01T00:16:35.568Z,0.00
2018-09-01T00:17:35.565Z,0.00
2018-09-01T00:18:35.511Z,0.00
2018-09-01T00:19:35.557Z,0.00
2018-09-01T00:20:35.558Z,0.00
2018-09-01T00:21:35.453Z,0.00
2018-09-01T00:22:35.475Z,0.00
2018-09-01T00:23:35.444Z,0.00
2018-09-01T00:24:35.462Z,0.00
2018-09-01T00:25:35.360Z,0.00
2018-09-01T00:26:35.392Z,0.00
2018-09-01T00:27:35.329Z,0.00
2018-09-01T00:28:35.331Z,0.00
2018-09-01T00:29:35.290Z,0.00
2018-09-01T00:30:35.351Z,0.00
2018-09-01T00:31:35.335Z,0.00
2018-09-01T00:32:35.313Z,0.00
2018-09-01T00:33:35.211Z,0.00
2018-09-01T00:34:35.185Z,0.00
2018-09-01T00:35:35.233Z,0.00
2018-09-01T00:36:35.213Z,0.00
2018-09-01T00:37:35.172Z,0.00
2018-09-01T00:38:35.118Z,0.00
2018-09-01T00:39:35.096Z,0.00
2018-09-01T00:40:35.047Z,0.00
2018-09-01T00:41:35.063Z,0.00
2018-09-01T00:42:35.016Z,0.00
2018-09-01T00:43:35.000Z,0.00
2018-09-01T00:44:34.967Z,0.00
2018-09-01T00:45:34.951Z,0.00
2018-09-01T00:46:34.933Z,0.00
2018-09-01T00:47:34.914Z,0.00
2018-09-01T00:48:34.883Z,0.00
2018-09-01T00:49:34.885Z,0.00
2018-09-01T00:50:34.850Z,0.00
2018-09-01T00:51:34.824Z,0.00
2018-09-01T00:52:34.814Z,0.00
2018-09-01T00:53:34.786Z,0.00
2018-09-01T00:54:34.771Z,0.00
2018-09-01T00:55:34.753Z,0.00
2018-09-01T00:56:34.731Z,0.00
2018-09-01T00:57:34.712Z,0.00
2018-09-01T00:58:34.682Z,0.00
2018-09-01T00:59:34.667Z,0.00
2018-09-01T01:00:34.644Z,0.00
2018-09-01T01:01:34.634Z,0.00
2018-09-01T01:02:34.603Z,0.00
2018-09-01T01:03:34.590Z,0.00
2018-09-01T01:04:34.561Z,0.00
2018-09-01T01:05:34.539Z,0.00
2018-09-01T01:06:34.514Z,0.00
2018-09-01T01:07:34.504Z,0.00
2018-09-01T01:08:34.479Z,0.00
2018-09-01T01:09:34.463Z,0.00
2018-09-01T01:10:34.437Z,0.00
2018-09-01T01:11:34.415Z,0.00
2018-09-01T01:12:34.394Z,0.00
2018-09-01T01:13:34.383Z,0.00
2018-09-01T01:14:34.370Z,0.00
2018-09-01T01:15:34.340Z,0.00
2018-09-01T01:16:34.341Z,0.00
2018-09-01T01:17:34.295Z,0.00
2018-09-01T01:18:34.286Z,0.00
2018-09-01T01:19:34.257Z,0.00
2018-09-01T01:20:34.254Z,0.00
2018-09-01T01:21:34.215Z,0.00
2018-09-01T01:22:34.196Z,0.00
2018-09-01T01:23:34.168Z,0.00
2018-09-01T01:24:34.147Z,0.00
2018-09-01T01:25:34.149Z,0.00
2018-09-01T01:26:34.099Z,0.00
2018-09-01T01:27:34.089Z,0.00
2018-09-01T01:28:34.064Z,0.00
2018-09-01T01:29:34.053Z,0.00
2018-09-01T01:30:34.019Z,0.00
2018-09-01T01:31:34.000Z,0.00
2018-09-01T01:32:33.984Z,0.00
2018-09-01T01:33:33.959Z,0.00
2018-09-01T01:34:33.949Z,0.00
2018-09-01T01:35:33.923Z,0.00
2018-09-01T01:36:33.932Z,0.00
2018-09-01T01:37:33.882Z,0.00
2018-09-01T01:38:33.856Z,0.00
2018-09-01T01:39:33.833Z,0.00
2018-09-01T01:40:33.814Z,0.00
2018-09-01T01:41:33.798Z,0.00
2018-09-01T01:42:33.769Z,0.00
2018-09-01T01:43:33.753Z,0.00
2018-09-01T01:44:33.744Z,0.00
2018-09-01T01:45:33.740Z,0.00
2018-09-01T01:46:33.686Z,0.00
2018-09-01T01:47:33.667Z,0.00
2018-09-01T01:48:33.645Z,0.00
2018-09-01T01:49:33.667Z,0.00
2018-09-01T01:50:33.603Z,0.00
2018-09-01T01:51:33.588Z,0.00
2018-09-01T01:52:33.565Z,0.00
2018-09-01T01:53:33.558Z,0.00
2018-09-01T01:54:33.519Z,0.00
2018-09-01T01:55:33.496Z,0.00
2018-09-01T01:56:33.481Z,0.00
2018-09-01T01:57:33.455Z,0.00
2018-09-01T01:58:33.468Z,0.00
2018-09-01T01:59:33.416Z,0.00
2018-09-01T02:00:33.398Z,0.00
2018-09-01T02:01:33.378Z,0.00
2018-09-01T02:02:33.375Z,0.00
2018-09-01T02:03:33.340Z,0.00
2018-09-01T02:04:33.319Z,0.00
2018-09-01T02:05:33.284Z,0.00
2018-09-01T02:06:33.290Z,0.00
2018-09-01T02:07:33.303Z,0.00
2018-09-01T02:08:33.271Z,0.00
2018-09-01T02:09:33.214Z,0.00
2018-09-01T02:10:33.194Z,0.00
2018-09-01T02:11:33.215Z,0.00
2018-09-01T02:12:33.144Z,0.00
2018-09-01T02:13:33.146Z,0.00
2018-09-01T02:14:33.105Z,0.00
2018-09-01T02:15:33.105Z,0.00
2018-09-01T02:16:33.060Z,0.00
2018-09-01T02:17:33.658Z,0.00
2018-09-01T02:18:33.027Z,0.00
2018-09-01T02:19:32.999Z,0.00
2018-09-01T02:20:32.973Z,0.00
2018-09-01T02:21:32.961Z,0.00
2018-09-01T02:22:32.961Z,0.00
2018-09-01T02:23:32.923Z,0.00
2018-09-01T02:24:32.932Z,0.00
2018-09-01T02:25:32.878Z,0.00
2018-09-01T02:26:32.881Z,0.00
2018-09-01T02:27:32.849Z,0.00
2018-09-01T02:28:32.808Z,0.00
2018-09-01T02:29:32.811Z,0.00
2018-09-01T02:30:32.763Z,0.00
2018-09-01T02:31:32.754Z,0.00
2018-09-01T02:32:32.722Z,0.00
2018-09-01T02:33:32.703Z,0.00
2018-09-01T02:34:32.680Z,0.00
2018-09-01T02:35:32.658Z,0.00
2018-09-01T02:36:32.677Z,0.00
2018-09-01T02:37:32.632Z,0.00
2018-09-01T02:38:32.620Z,0.00
2018-09-01T02:39:32.578Z,0.00
2018-09-01T02:40:32.575Z,0.00
2018-09-01T02:41:32.527Z,0.00
2018-09-01T02:42:32.553Z,0.00
2018-09-01T02:43:32.519Z,0.00
2018-09-01T02:44:32.466Z,0.00
2018-09-01T02:45:32.447Z,0.00
2018-09-01T02:46:32.457Z,0.00
2018-09-01T02:47:32.428Z,0.00
2018-09-01T02:48:32.406Z,0.00
2018-09-01T02:49:32.353Z,0.00
2018-09-01T02:50:32.341Z,0.00
2018-09-01T02:51:32.380Z,0.00
2018-09-01T02:52:32.340Z,0.00
2018-09-01T02:53:32.331Z,0.00
2018-09-01T02:54:32.303Z,0.00
2018-09-01T02:55:32.321Z,0.00
2018-09-01T02:56:32.341Z,0.00
2018-09-01T02:57:32.242Z,0.00
2018-09-01T02:58:32.191Z,0.00
2018-09-01T02:59:32.161Z,0.00
2018-09-01T03:00:32.238Z,0.00
2018-09-01T03:01:32.140Z,0.00
2018-09-01T03:02:32.101Z,0.00
2018-09-01T03:03:32.106Z,0.00
2018-09-01T03:04:32.168Z,0.00
2018-09-01T03:05:32.083Z,0.00
2018-09-01T03:06:32.046Z,0.00
2018-09-01T03:07:32.029Z,0.00
2018-09-01T03:08:32.044Z,0.00
2018-09-01T03:09:32.050Z,0.00
2018-09-01T03:10:31.935Z,0.00
2018-09-01T03:11:31.956Z,0.00
2018-09-01T03:12:31.923Z,0.00
2018-09-01T03:13:31.875Z,0.00
2018-09-01T03:14:31.871Z,0.00
2018-09-01T03:15:31.865Z,0.00
2018-09-01T03:16:31.832Z,0.00
2018-09-01T03:17:31.787Z,0.00
2018-09-01T03:18:31.791Z,0.00
2018-09-01T03:19:31.740Z,0.00
2018-09-01T03:20:31.748Z,0.00
2018-09-01T03:21:31.731Z,0.00
2018-09-01T03:22:31.761Z,0.00
2018-09-01T03:23:31.758Z,0.00
2018-09-01T03:24:31.630Z,0.00
2018-09-01T03:25:31.643Z,0.00
2018-09-01T03:26:31.607Z,0.00
2018-09-01T03:27:31.609Z,0.00
2018-09-01T03:28:31.648Z,0.00
2018-09-01T03:29:31.546Z,0.00
2018-09-01T03:30:31.539Z,0.00
2018-09-01T03:31:31.543Z,0.00
2018-09-01T03:32:31.479Z,0.00
2018-09-01T03:33:31.437Z,0.00
2018-09-01T03:34:31.483Z,0.00
2018-09-01T03:35:31.425Z,0.00
2018-09-01T03:36:31.431Z,0.00
2018-09-01T03:37:31.378Z,0.00
2018-09-01T03:38:31.376Z,0.00
2018-09-01T03:39:31.327Z,0.00
2018-09-01T03:40:31.315Z,0.00
2018-09-01T03:41:31.274Z,0.00
2018-09-01T03:42:31.268Z,0.00
2018-09-01T03:43:31.248Z,0.00
2018-09-01T03:44:31.194Z,0.00
2018-09-01T03:45:31.282Z,0.00
2018-09-01T03:46:31.188Z,0.00
2018-09-01T03:47:31.136Z,0.00
2018-09-01T03:48:31.139Z,0.00
2018-09-01T03:49:31.129Z,0.00
2018-09-01T03:50:31.107Z,0.00
2018-09-01T03:51:31.095Z,0.00
2018-09-01T03:52:31.065Z,0.00
2018-09-01T03:53:31.053Z,0.00
2018-09-01T03:54:31.011Z,0.00
2018-09-01T03:55:31.052Z,0.00
2018-09-01T03:56:30.966Z,0.00
2018-09-01T03:57:31.009Z,0.00
2018-09-01T03:58:30.955Z,0.00
2018-09-01T03:59:30.911Z,0.00
2018-09-01T04:00:30.883Z,0.00
2018-09-01T04:01:30.871Z,0.00
2018-09-01T04:02:30.852Z,0.00
2018-09-01T04:03:30.846Z,0.00
2018-09-01T04:04:30.859Z,0.00
2018-09-01T04:05:30.757Z,0.00
2018-09-01T04:06:30.830Z,0.00
2018-09-01T04:07:30.782Z,0.00
2018-09-01T04:08:30.753Z,0.00
2018-09-01T04:09:30.702Z,0.00
2018-09-01T04:10:30.763Z,4.00
2018-09-01T04:11:30.664Z,4.00
2018-09-01T04:12:30.645Z,4.00
2018-09-01T04:13:30.728Z,4.00
2018-09-01T04:14:30.626Z,4.00
2018-09-01T04:15:30.555Z,8.00
2018-09-01T04:16:30.546Z,4.00
2018-09-01T04:17:30.543Z,8.00
2018-09-01T04:18:30.513Z,8.00
2018-09-01T04:19:30.461Z,12.00
2018-09-01T04:20:30.460Z,12.00
2018-09-01T04:21:30.445Z,16.00
2018-09-01T04:22:30.425Z,20.00
2018-09-01T04:23:30.377Z,24.00
2018-09-01T04:24:30.396Z,28.00
2018-09-01T04:25:30.376Z,32.00
2018-09-01T04:26:30.347Z,40.00
2018-09-01T04:27:30.317Z,48.00
2018-09-01T04:28:30.416Z,56.00
2018-09-01T04:29:30.269Z,60.00
2018-09-01T04:30:30.246Z,68.00
2018-09-01T04:31:30.234Z,80.00
2018-09-01T04:32:30.222Z,88.00
2018-09-01T04:33:30.259Z,100.00
2018-09-01T04:34:30.145Z,108.00
2018-09-01T04:35:30.265Z,120.00
2018-09-01T04:36:30.111Z,132.00
2018-09-01T04:37:30.123Z,144.00
2018-09-01T04:38:30.058Z,156.00
2018-09-01T04:39:30.059Z,172.00
2018-09-01T04:40:30.087Z,188.00
2018-09-01T04:41:29.992Z,200.00
2018-09-01T04:42:29.975Z,216.00
2018-09-01T04:43:29.958Z,228.00
2018-09-01T04:44:29.952Z,244.00
2018-09-01T04:45:29.932Z,264.00
2018-09-01T04:46:29.923Z,284.00
2018-09-01T04:47:29.872Z,304.00
2018-09-01T04:48:29.849Z,324.00
2018-09-01T04:49:29.852Z,344.00
2018-09-01T04:50:29.829Z,360.00
2018-09-01T04:51:29.843Z,380.00
2018-09-01T04:52:29.764Z,396.00
2018-09-01T04:53:29.739Z,420.00
2018-09-01T04:54:29.714Z,444.00
2018-09-01T04:55:29.721Z,480.00
2018-09-01T04:56:29.646Z,512.00
2018-09-01T04:57:29.645Z,540.00
2018-09-01T04:58:29.611Z,564.00
2018-09-01T04:59:29.594Z,596.00
2018-09-01T05:00:29.671Z,636.00
2018-09-01T05:01:29.607Z,676.00
2018-09-01T05:02:29.547Z,708.00
2018-09-01T05:03:29.503Z,752.00
2018-09-01T05:04:29.478Z,816.00
2018-09-01T05:05:29.461Z,892.00
2018-09-01T05:06:29.455Z,964.00
2018-09-01T05:07:29.427Z,1016.00
2018-09-01T05:08:29.393Z,1060.00
2018-09-01T05:09:29.427Z,1072.00
2018-09-01T05:10:29.343Z,1084.00
2018-09-01T05:11:29.383Z,1120.00
2018-09-01T05:12:29.379Z,1184.00
2018-09-01T05:13:29.330Z,1272.00
2018-09-01T05:14:29.317Z,1356.00
2018-09-01T05:15:29.277Z,1404.00
2018-09-01T05:16:29.271Z,1436.00
2018-09-01T05:17:29.234Z,1456.00
2018-09-01T05:18:29.206Z,1452.00
2018-09-01T05:19:29.192Z,1456.00
2018-09-01T05:20:29.196Z,1504.00
2018-09-01T05:21:29.171Z,1600.00
2018-09-01T05:22:29.147Z,1704.00
2018-09-01T05:23:29.131Z,1804.00
2018-09-01T05:24:29.080Z,1896.00
2018-09-01T05:25:29.083Z,1984.00
2018-09-01T05:26:29.065Z,2088.00
2018-09-01T05:27:29.039Z,2212.00
2018-09-01T05:28:29.042Z,2356.00
2018-09-01T05:29:28.984Z,2472.00
2018-09-01T05:30:28.948Z,2580.00
2018-09-01T05:31:28.949Z,2672.00
2018-09-01T05:32:28.887Z,2728.00
2018-09-01T05:33:29.031Z,2764.00
2018-09-01T05:34:28.971Z,2820.00
2018-09-01T05:35:28.919Z,2884.00
2018-09-01T05:36:28.927Z,2988.00
2018-09-01T05:37:28.769Z,3104.00
2018-09-01T05:38:28.779Z,3260.00
2018-09-01T05:39:28.809Z,3460.00
2018-09-01T05:40:28.808Z,3632.00
2018-09-01T05:41:28.773Z,3776.00
2018-09-01T05:42:28.726Z,3852.00
2018-09-01T05:43:28.686Z,3816.00
2018-09-01T05:44:28.647Z,3712.00
2018-09-01T05:45:28.640Z,3640.00
2018-09-01T05:46:28.621Z,3592.00
2018-09-01T05:47:28.622Z,3580.00
2018-09-01T05:48:28.560Z,3584.00
2018-09-01T05:49:28.586Z,3616.00
2018-09-01T05:50:28.524Z,3676.00
2018-09-01T05:51:28.527Z,3736.00
2018-09-01T05:52:28.466Z,3780.00
2018-09-01T05:53:28.459Z,3868.00
2018-09-01T05:54:28.450Z,3976.00
2018-09-01T05:55:28.421Z,4080.00
2018-09-01T05:56:28.462Z,4176.00
2018-09-01T05:57:28.373Z,4264.00
2018-09-01T05:58:28.317Z,4372.00
2018-09-01T05:59:28.335Z,4432.00
2018-09-01T06:00:28.337Z,4424.00
2018-09-01T06:01:28.287Z,4416.00
2018-09-01T06:02:28.261Z,4444.00
2018-09-01T06:03:28.239Z,4488.00
2018-09-01T06:04:28.326Z,4556.00
2018-09-01T06:05:28.237Z,4676.00
2018-09-01T06:06:28.279Z,4776.00
2018-09-01T06:07:28.149Z,4824.00
2018-09-01T06:08:28.118Z,4836.00
2018-09-01T06:09:28.087Z,4880.00
2018-09-01T06:10:28.077Z,4900.00
2018-09-01T06:11:28.056Z,4932.00
2018-09-01T06:12:28.051Z,4908.00
2018-09-01T06:13:28.016Z,4864.00
2018-09-01T06:14:27.987Z,4816.00
2018-09-01T06:15:27.971Z,4780.00
2018-09-01T06:16:27.944Z,4828.00
2018-09-01T06:17:27.998Z,4880.00
2018-09-01T06:18:27.910Z,4880.00
2018-09-01T06:19:27.892Z,4824.00
2018-09-01T06:20:27.873Z,4780.00
2018-09-01T06:21:27.875Z,4772.00
2018-09-01T06:22:27.831Z,4720.00
2018-09-01T06:23:27.815Z,4664.00
2018-09-01T06:24:27.789Z,4624.00
2018-09-01T06:25:27.781Z,4612.00
2018-09-01T06:26:27.752Z,4596.00
2018-09-01T06:27:27.778Z,4576.00
2018-09-01T06:28:27.711Z,4588.00
2018-09-01T06:29:27.688Z,4644.00
2018-09-01T06:30:27.684Z,4740.00
2018-09-01T06:31:27.654Z,4844.00
2018-09-01T06:32:27.637Z,4980.00
2018-09-01T06:33:27.620Z,5136.00
2018-09-01T06:34:27.617Z,5304.00
2018-09-01T06:35:27.576Z,5452.00
2018-09-01T06:36:27.572Z,5576.00
2018-09-01T06:37:27.543Z,5704.00
2018-09-01T06:38:27.524Z,5796.00
2018-09-01T06:39:27.530Z,5932.00
2018-09-01T06:40:27.485Z,6060.00
2018-09-01T06:41:27.479Z,6232.00
2018-09-01T06:42:27.463Z,6412.00
2018-09-01T06:43:27.418Z,6556.00
2018-09-01T06:44:27.392Z,6608.00
2018-09-01T06:45:27.380Z,6668.00
2018-09-01T06:46:27.351Z,6740.00
2018-09-01T06:47:27.339Z,6824.00
2018-09-01T06:48:27.390Z,6948.00
2018-09-01T06:49:27.398Z,7076.00
2018-09-01T06:50:27.346Z,7180.00
2018-09-01T06:51:27.334Z,7240.00
2018-09-01T06:52:27.243Z,7300.00
2018-09-01T06:53:27.275Z,7248.00
2018-09-01T06:54:27.208Z,7080.00
2018-09-01T06:55:27.256Z,6816.00
2018-09-01T06:56:27.189Z,6516.00
2018-09-01T06:57:27.155Z,6232.00
2018-09-01T06:58:27.143Z,5968.00
2018-09-01T06:59:27.114Z,5744.00
2018-09-01T07:00:27.089Z,5628.00
2018-09-01T07:01:27.090Z,5512.00
2018-09-01T07:02:27.062Z,5424.00
2018-09-01T07:03:27.063Z,5304.00
2018-09-01T07:04:27.015Z,5200.00
2018-09-01T07:05:27.024Z,5100.00
2018-09-01T07:06:27.005Z,5012.00
2018-09-01T07:07:26.961Z,4964.00
2018-09-01T07:08:26.959Z,4944.00
2018-09-01T07:09:27.002Z,4956.00
2018-09-01T07:10:26.996Z,5024.00
2018-09-01T07:11:26.976Z,5092.00
2018-09-01T07:12:26.908Z,5032.00
2018-09-01T07:13:26.918Z,5016.00
2018-09-01T07:14:26.961Z,5080.00
2018-09-01T07:15:26.839Z,5236.00
2018-09-01T07:16:26.799Z,5284.00
2018-09-01T07:17:26.800Z,5260.00
2018-09-01T07:18:26.764Z,5412.00
2018-09-01T07:19:26.739Z,5348.00
2018-09-01T07:20:26.725Z,5352.00
2018-09-01T07:21:26.706Z,5504.00
2018-09-01T07:22:26.697Z,5664.00
2018-09-01T07:23:26.675Z,5440.00
2018-09-01T07:24:26.655Z,5316.00
2018-09-01T07:25:26.649Z,5524.00
2018-09-01T07:26:26.668Z,5664.00
2018-09-01T07:27:26.604Z,5560.00
2018-09-01T07:28:26.648Z,5708.00
2018-09-01T07:29:26.597Z,5820.00
2018-09-01T07:30:26.707Z,5804.00
2018-09-01T07:31:26.949Z,5736.00
2018-09-01T07:32:26.556Z,5804.00
2018-09-01T07:33:26.506Z,6016.00
2018-09-01T07:34:26.488Z,6112.00
2018-09-01T07:35:26.472Z,6080.00
2018-09-01T07:36:26.485Z,6200.00
2018-09-01T07:37:26.435Z,6432.00
2018-09-01T07:38:26.438Z,6600.00
2018-09-01T07:39:26.402Z,6604.00
2018-09-01T07:40:26.386Z,6580.00
2018-09-01T07:41:26.386Z,6576.00
2018-09-01T07:42:26.352Z,6596.00
2018-09-01T07:43:26.345Z,6628.00
2018-09-01T07:44:26.334Z,6752.00
2018-09-01T07:45:26.312Z,6868.00
2018-09-01T07:46:26.314Z,6928.00
2018-09-01T07:47:26.290Z,6984.00
2018-09-01T07:48:26.286Z,7056.00
2018-09-01T07:49:26.245Z,7020.00
2018-09-01T07:50:26.235Z,7012.00
2018-09-01T07:51:26.220Z,7124.00
2018-09-01T07:52:26.202Z,7256.00
2018-09-01T07:53:26.190Z,7548.00
2018-09-01T07:54:26.204Z,7788.00
2018-09-01T07:55:26.165Z,7972.00
2018-09-01T07:56:26.141Z,8032.00
2018-09-01T07:57:26.134Z,7944.00
2018-09-01T07:58:26.125Z,7940.00
2018-09-01T07:59:26.111Z,7972.00
2018-09-01T08:00:26.093Z,8008.00
2018-09-01T08:01:26.112Z,8012.00
2018-09-01T08:02:26.067Z,8048.00
2018-09-01T08:03:26.055Z,8112.00
2018-09-01T08:04:26.035Z,8192.00
2018-09-01T08:05:26.028Z,8320.00
2018-09-01T08:06:26.013Z,8416.00
2018-09-01T08:07:26.037Z,8416.00
2018-09-01T08:08:25.988Z,8532.00
2018-09-01T08:09:25.994Z,8720.00
2018-09-01T08:10:25.966Z,8912.00
2018-09-01T08:11:25.984Z,9048.00
2018-09-01T08:12:25.948Z,9148.00
2018-09-01T08:13:25.953Z,9220.00
2018-09-01T08:14:25.981Z,9300.00
2018-09-01T08:15:25.904Z,9436.00
2018-09-01T08:16:25.888Z,9576.00
2018-09-01T08:17:25.907Z,9712.00
2018-09-01T08:18:25.884Z,9892.00
2018-09-01T08:19:25.852Z,10020.00
2018-09-01T08:20:25.840Z,10112.00
2018-09-01T08:21:25.832Z,10244.00
2018-09-01T08:22:25.821Z,10328.00
2018-09-01T08:23:25.814Z,10416.00
2018-09-01T08:24:25.795Z,10512.00
2018-09-01T08:25:25.796Z,10652.00
2018-09-01T08:26:25.780Z,10796.00
2018-09-01T08:27:25.770Z,10912.00
2018-09-01T08:28:25.754Z,11056.00
2018-09-01T08:29:25.757Z,11204.00
2018-09-01T08:30:25.726Z,11460.00
2018-09-01T08:31:25.725Z,11720.00
2018-09-01T08:32:25.714Z,11920.00
2018-09-01T08:33:25.726Z,12136.00
2018-09-01T08:34:25.696Z,12388.00
2018-09-01T08:35:25.684Z,12596.00
2018-09-01T08:36:25.664Z,12856.00
2018-09-01T08:37:25.671Z,13184.00
2018-09-01T08:38:25.648Z,13660.00
2018-09-01T08:39:25.636Z,14236.00
2018-09-01T08:40:25.637Z,14288.00
2018-09-01T08:41:25.613Z,14232.00
2018-09-01T08:42:25.639Z,14328.00
2018-09-01T08:43:25.604Z,14556.00
2018-09-01T08:44:25.584Z,14728.00
2018-09-01T08:45:25.612Z,15016.00
2018-09-01T08:46:25.565Z,15248.00
2018-09-01T08:47:25.553Z,15576.00
2018-09-01T08:48:25.540Z,16000.00
2018-09-01T08:49:25.531Z,16428.00
2018-09-01T08:50:25.527Z,16976.00
2018-09-01T08:51:25.515Z,17508.00
2018-09-01T08:52:25.500Z,18304.00
2018-09-01T08:53:25.490Z,19328.00
2018-09-01T08:54:25.482Z,22848.00
2018-09-01T08:55:25.476Z,51488.00
2018-09-01T08:56:25.482Z,77280.00
2018-09-01T08:57:25.455Z,79456.00
2018-09-01T08:58:25.448Z,80544.00
2018-09-01T08:59:25.440Z,81696.00
2018-09-01T09:00:25.427Z,82688.00
2018-09-01T09:01:25.416Z,81376.00
2018-09-01T09:02:25.413Z,79360.00
2018-09-01T09:03:25.401Z,78912.00
2018-09-01T09:04:25.385Z,36416.00
2018-09-01T09:05:25.413Z,34208.00
2018-09-01T09:06:25.400Z,77536.00
2018-09-01T09:07:25.365Z,89792.00
2018-09-01T09:08:25.383Z,89088.00
2018-09-01T09:09:25.348Z,91296.00
2018-09-01T09:10:25.333Z,93632.00
2018-09-01T09:11:25.361Z,93792.00
2018-09-01T09:12:25.308Z,92608.00
2018-09-01T09:13:25.301Z,88416.00
2018-09-01T09:14:25.318Z,89312.00
2018-09-01T09:15:25.287Z,86816.00
2018-09-01T09:16:25.276Z,84416.00
2018-09-01T09:17:25.262Z,82272.00
2018-09-01T09:18:25.301Z,78912.00
2018-09-01T09:19:25.247Z,79328.00
2018-09-01T09:20:25.243Z,84960.00
2018-09-01T09:21:25.241Z,90656.00
2018-09-01T09:22:25.228Z,91136.00
2018-09-01T09:23:25.232Z,89536.00
2018-09-01T09:24:25.260Z,89856.00
2018-09-01T09:25:25.202Z,90816.00
2018-09-01T09:26:25.190Z,91552.00
2018-09-01T09:27:25.183Z,92000.00
2018-09-01T09:28:25.187Z,92224.00
2018-09-01T09:29:25.151Z,89376.00
2018-09-01T09:30:25.186Z,84992.00
2018-09-01T09:31:25.146Z,86304.00
2018-09-01T09:32:25.130Z,89728.00
2018-09-01T09:33:25.115Z,89696.00
2018-09-01T09:34:25.183Z,87168.00
2018-09-01T09:35:25.105Z,87552.00
2018-09-01T09:36:25.092Z,88768.00
2018-09-01T09:37:25.099Z,90752.00
2018-09-01T09:38:25.079Z,90688.00
2018-09-01T09:39:25.077Z,90816.00
2018-09-01T09:40:25.064Z,90080.00
2018-09-01T09:41:25.045Z,89984.00
2018-09-01T09:42:25.052Z,89504.00
2018-09-01T09:43:25.038Z,88960.00
2018-09-01T09:44:25.028Z,87328.00
2018-09-01T09:45:25.021Z,91424.00
2018-09-01T09:46:25.016Z,92320.00
2018-09-01T09:47:25.000Z,92000.00
2018-09-01T09:48:24.999Z,91296.00
2018-09-01T09:49:24.980Z,93184.00
2018-09-01T09:50:24.973Z,92576.00
2018-09-01T09:51:24.967Z,89888.00
2018-09-01T09:52:24.993Z,87872.00
2018-09-01T09:53:24.964Z,87872.00
2018-09-01T09:54:24.946Z,88672.00
2018-09-01T09:55:24.945Z,91136.00
2018-09-01T09:56:24.927Z,89888.00
2018-09-01T09:57:24.917Z,88800.00
2018-09-01T09:58:25.021Z,87008.00
2018-09-01T09:59:24.910Z,87424.00
2018-09-01T10:00:24.895Z,75968.00
2018-09-01T10:01:24.882Z,10792.00
2018-09-01T10:02:24.896Z,11220.00
2018-09-01T10:03:24.873Z,92224.00
2018-09-01T10:04:24.859Z,89568.00
2018-09-01T10:05:24.899Z,91776.00
2018-09-01T10:06:24.853Z,92608.00
2018-09-01T10:07:24.838Z,96288.00
2018-09-01T10:08:24.831Z,101120.00
2018-09-01T10:09:24.822Z,102912.00
2018-09-01T10:10:24.818Z,98624.00
2018-09-01T10:11:24.811Z,105184.00
2018-09-01T10:12:24.799Z,101056.00
2018-09-01T10:13:24.795Z,100160.00
2018-09-01T10:14:24.793Z,98688.00
2018-09-01T10:15:24.789Z,93440.00
2018-09-01T10:16:24.801Z,87808.00
2018-09-01T10:17:24.775Z,87712.00
2018-09-01T10:18:24.767Z,91872.00
2018-09-01T10:19:24.765Z,93792.00
2018-09-01T10:20:24.794Z,92288.00
2018-09-01T10:21:24.753Z,59360.00
2018-09-01T10:22:24.741Z,85920.00
2018-09-01T10:23:24.740Z,24576.00
2018-09-01T10:24:24.737Z,22560.00
2018-09-01T10:25:24.731Z,23136.00
2018-09-01T10:26:24.724Z,18912.00
2018-09-01T10:27:24.712Z,19488.00
2018-09-01T10:28:24.708Z,20192.00
2018-09-01T10:29:24.709Z,22720.00
2018-09-01T10:30:24.700Z,90368.00
2018-09-01T10:31:24.703Z,21536.00
2018-09-01T10:32:24.683Z,23648.00
2018-09-01T10:33:24.696Z,16844.00
2018-09-01T10:34:24.671Z,15488.00
2018-09-01T10:35:24.661Z,14812.00
2018-09-01T10:36:24.657Z,15292.00
2018-09-01T10:37:24.651Z,16364.00
2018-09-01T10:38:24.663Z,17356.00
2018-09-01T10:39:24.635Z,17676.00
2018-09-01T10:40:24.629Z,28896.00
2018-09-01T10:41:24.625Z,34784.00
2018-09-01T10:42:24.622Z,107872.00
2018-09-01T10:43:24.607Z,111072.00
2018-09-01T10:44:24.603Z,107200.00
2018-09-01T10:45:24.593Z,107328.00
2018-09-01T10:46:24.580Z,107680.00
2018-09-01T10:47:24.577Z,109120.00
2018-09-01T10:48:24.567Z,109792.00
2018-09-01T10:49:24.564Z,108864.00
2018-09-01T10:50:24.556Z,99456.00
2018-09-01T10:51:24.563Z,103712.00
2018-09-01T10:52:24.544Z,107808.00
2018-09-01T10:53:24.538Z,109024.00
2018-09-01T10:54:24.534Z,108928.00
2018-09-01T10:55:24.547Z,107296.00
2018-09-01T10:56:24.527Z,111552.00
2018-09-01T10:57:24.522Z,20000.00
2018-09-01T10:58:24.508Z,101440.00
2018-09-01T10:59:24.571Z,44448.00
2018-09-01T11:00:24.505Z,27680.00
2018-09-01T11:01:24.502Z,119616.00
2018-09-01T11:02:24.499Z,119968.00
2018-09-01T11:03:24.487Z,96768.00
2018-09-01T11:04:24.489Z,21728.00
2018-09-01T11:05:24.500Z,28288.00
2018-09-01T11:06:24.477Z,88896.00
2018-09-01T11:07:24.473Z,120704.00
2018-09-01T11:08:24.464Z,115808.00
2018-09-01T11:09:24.457Z,110080.00
2018-09-01T11:10:24.461Z,35584.00
2018-09-01T11:11:24.454Z,70592.00
2018-09-01T11:12:24.452Z,89856.00
2018-09-01T11:13:24.451Z,77120.00
2018-09-01T11:14:24.442Z,18400.00
2018-09-01T11:15:24.432Z,21760.00
2018-09-01T11:16:24.432Z,103488.00
2018-09-01T11:17:24.429Z,112320.00
2018-09-01T11:18:24.428Z,70816.00
2018-09-01T11:19:24.426Z,111392.00
2018-09-01T11:20:24.421Z,109184.00
2018-09-01T11:21:24.415Z,108960.00
2018-09-01T11:22:24.412Z,107104.00
2018-09-01T11:23:24.408Z,106048.00
2018-09-01T11:24:24.409Z,107328.00
2018-09-01T11:25:24.403Z,112736.00
2018-09-01T11:26:24.400Z,117824.00
2018-09-01T11:27:24.395Z,28256.00
2018-09-01T11:28:24.393Z,41888.00
2018-09-01T11:29:24.398Z,111648.00
2018-09-01T11:30:24.391Z,29504.00
2018-09-01T11:31:24.384Z,19008.00
2018-09-01T11:32:24.390Z,20416.00
2018-09-01T11:33:24.387Z,103808.00
2018-09-01T11:34:24.387Z,120000.00
2018-09-01T11:35:24.384Z,118112.00
2018-09-01T11:36:24.396Z,99840.00
2018-09-01T11:37:24.371Z,39872.00
2018-09-01T11:38:24.387Z,56096.00
2018-09-01T11:39:24.371Z,49376.00
2018-09-01T11:40:24.367Z,108672.00
2018-09-01T11:41:24.371Z,108480.00
2018-09-01T11:42:24.458Z,105600.00
2018-09-01T11:43:24.361Z,104064.00
2018-09-01T11:44:24.355Z,107776.00
2018-09-01T11:45:24.358Z,110560.00
2018-09-01T11:46:24.355Z,113568.00
2018-09-01T11:47:24.349Z,112768.00
2018-09-01T11:48:24.352Z,112928.00
2018-09-01T11:49:24.349Z,116448.00
2018-09-01T11:50:24.352Z,40896.00
2018-09-01T11:51:24.345Z,110048.00
2018-09-01T11:52:24.345Z,22944.00
2018-09-01T11:53:24.368Z,22304.00
2018-09-01T11:54:24.343Z,95680.00
2018-09-01T11:55:24.352Z,21056.00
2018-09-01T11:56:24.339Z,25952.00
2018-09-01T11:57:24.341Z,117280.00
2018-09-01T11:58:24.336Z,116800.00
2018-09-01T11:59:24.342Z,112576.00
2018-09-01T12:00:24.333Z,108096.00
2018-09-01T12:01:24.333Z,108288.00
2018-09-01T12:02:24.327Z,109152.00
2018-09-01T12:03:24.338Z,110400.00
2018-09-01T12:04:24.324Z,112288.00
2018-09-01T12:05:24.326Z,95168.00
2018-09-01T12:06:24.330Z,112096.00
2018-09-01T12:07:24.324Z,101760.00
2018-09-01T12:08:24.333Z,114816.00
2018-09-01T12:09:24.365Z,127456.00
2018-09-01T12:10:24.320Z,133408.00
2018-09-01T12:11:24.321Z,99200.00
2018-09-01T12:12:24.327Z,53376.00
2018-09-01T12:13:24.317Z,38368.00
2018-09-01T12:14:24.323Z,38496.00
2018-09-01T12:15:24.327Z,38560.00
2018-09-01T12:16:24.320Z,37824.00
2018-09-01T12:17:24.323Z,18912.00
2018-09-01T12:18:24.320Z,17192.00
2018-09-01T12:19:24.325Z,28352.00
2018-09-01T12:20:24.323Z,24544.00
2018-09-01T12:21:24.315Z,25056.00